EDT,Max TemperatureF,Mean TemperatureF,Min TemperatureF,Max Dew PointF,MeanDew PointF,Min DewpointF,Max Humidity, Mean Humidity, Min Humidity, Max Sea Level PressureIn, Mean Sea Level PressureIn, Min Sea Level PressureIn, Max VisibilityMiles, Mean VisibilityMiles, Min VisibilityMiles, Max Wind SpeedMPH, Mean Wind SpeedMPH, Max Gust SpeedMPH,PrecipitationIn, CloudCover, Events, WindDirDegrees
2013-10-1,82,68,53,64,58,54,100,80,42,30.19,30.12,30.08,10,9,2,7,1,,0.00,0,,53
2013-10-2,86,70,53,66,60,54,100,80,40,30.19,30.14,30.09,10,8,1,8,1,,0.00,0,,73
2013-10-3,86,70,55,66,61,55,100,78,37,30.18,30.13,30.08,10,8,0,7,1,,0.00,0,Fog,97
2013-10-4,87,73,59,70,64,59,100,83,43,30.19,30.13,30.09,10,7,0,7,1,,0.00,1,Fog,89
2013-10-5,89,74,60,70,65,61,100,80,43,30.16,30.10,30.04,10,8,0,8,1,,0.00,1,Fog,116
2013-10-6,87,73,59,73,68,59,100,87,52,30.07,29.99,29.90,10,7,0,9,2,,0.00,4,Fog-Rain-Thunderstorm,138
2013-10-7,77,73,68,73,72,64,100,96,88,29.94,29.88,29.84,10,8,1,6,1,,0.00,7,Rain,212
2013-10-8,77,68,60,64,61,57,100,81,61,30.15,30.03,29.91,10,10,10,15,7,21,0.00,7,,44
2013-10-9,78,68,55,61,56,54,100,74,44,30.19,30.14,30.10,10,10,10,9,6,,0.00,4,,37
2013-10-10,82,66,51,64,56,52,100,78,39,30.16,30.09,30.02,10,10,7,12,1,17,0.00,0,,324
2013-10-11,84,68,53,63,57,54,100,76,35,30.07,30.02,29.97,10,9,1,12,2,21,0.00,0,,312
2013-10-12,86,68,51,63,58,52,100,78,33,30.09,30.04,30.00,10,9,1,8,1,,0.00,0,,312
2013-10-13,82,70,59,64,62,57,100,80,51,30.19,30.13,30.08,10,10,5,9,2,,0.00,4,,39
2013-10-14,73,68,62,64,63,63,100,88,73,30.20,30.16,30.12,10,10,4,9,4,,0.00,6,Rain,35
2013-10-15,78,70,62,63,62,59,94,80,51,30.15,30.10,30.04,10,10,10,10,5,16,0.00,5,,53
2013-10-16,82,68,55,64,61,55,100,81,48,30.08,30.03,29.98,10,9,0,6,1,,0.00,1,Fog,93
2013-10-17,86,70,55,68,64,55,100,79,45,30.02,29.97,29.91,10,8,0,10,2,,0.00,3,Fog,245
2013-10-18,77,72,66,70,65,61,94,83,61,30.05,29.98,29.93,10,10,10,7,1,,0.00,8,,317
2013-10-19,75,68,62,68,62,55,100,84,57,30.01,29.97,29.94,10,9,5,8,1,,0.00,6,Rain,325
2013-10-20,75,65,55,59,55,52,100,78,47,30.08,30.03,29.99,10,9,5,8,2,,0.00,1,,6
2013-10-21,73,63,53,61,58,54,100,89,64,30.14,30.08,30.04,10,9,4,6,1,,0.00,2,,82
2013-10-22,71,66,60,66,63,61,100,92,78,30.06,29.97,29.88,10,9,4,5,0,,0.00,7,Rain,177
2013-10-23,73,62,51,64,47,32,100,65,23,30.11,29.95,29.87,10,9,1,18,6,31,0.00,1,,306
2013-10-24,71,53,35,48,40,34,100,67,27,30.25,30.17,30.11,10,10,10,9,2,,0.00,0,,304
2013-10-25,64,50,37,45,39,32,100,71,30,30.37,30.30,30.20,10,10,10,12,3,16,0.00,1,,350
2013-10-26,66,49,32,43,37,32,100,73,30,30.36,30.28,30.19,10,10,7,6,1,,0.00,0,,13
2013-10-27,77,58,39,55,46,37,100,76,39,30.20,30.16,30.12,10,10,7,10,1,,0.00,0,,303
2013-10-28,77,65,53,59,55,52,100,82,47,30.30,30.23,30.15,10,10,5,7,1,,0.00,3,Rain,42
2013-10-29,78,63,48,59,55,48,100,81,42,30.37,30.30,30.26,10,8,2,4,0,,0.00,1,,102
2013-10-30,82,66,50,61,55,50,100,79,37,30.35,30.27,30.20,10,8,2,6,0,,0.00,0,,158
2013-10-31,80,65,50,64,59,50,100,82,57,30.22,30.10,29.99,10,8,0,16,3,25,0.00,2,Fog,191